createdAt,value
2018-12-27T00:00:26.365Z,2.50
2018-12-27T00:02:59.531Z,2.50
2018-12-27T00:05:32.603Z,2.50
2018-12-27T00:08:03.240Z,2.50
2018-12-27T00:10:32.904Z,2.50
2018-12-27T00:13:02.531Z,2.40
2018-12-27T00:15:34.840Z,2.40
2018-12-27T00:18:04.460Z,2.40
2018-12-27T00:20:34.188Z,2.40
2018-12-27T00:23:03.964Z,2.50
2018-12-27T00:25:33.621Z,2.40
2018-12-27T00:28:03.343Z,2.50
2018-12-27T00:30:33.116Z,2.50
2018-12-27T00:33:03.505Z,2.50
2018-12-27T00:35:33.405Z,2.50
2018-12-27T00:38:03.220Z,2.40
2018-12-27T00:40:33.052Z,2.40
2018-12-27T00:43:02.952Z,2.40
2018-12-27T00:45:33.708Z,2.50
2018-12-27T00:48:03.541Z,2.50
2018-12-27T00:50:33.428Z,2.50
2018-12-27T00:53:03.239Z,2.50
2018-12-27T00:55:33.311Z,2.50
2018-12-27T00:58:03.198Z,2.50
2018-12-27T01:00:32.994Z,2.50
2018-12-27T01:03:10.862Z,2.50
2018-12-27T01:05:35.503Z,2.60
2018-12-27T01:08:05.468Z,2.60
2018-12-27T01:10:37.008Z,2.60
2018-12-27T01:13:06.986Z,2.60
2018-12-27T01:15:36.773Z,2.60
2018-12-27T01:18:06.519Z,2.60
2018-12-27T01:20:37.294Z,2.50
2018-12-27T01:23:07.122Z,2.50
2018-12-27T01:25:36.884Z,2.50
2018-12-27T01:28:06.747Z,2.50
2018-12-27T01:30:36.778Z,2.50
2018-12-27T01:33:06.661Z,2.50
2018-12-27T01:35:39.473Z,2.50
2018-12-27T01:38:09.416Z,2.50
2018-12-27T01:40:39.247Z,2.50
2018-12-27T01:43:09.106Z,2.50
2018-12-27T01:45:39.074Z,2.50
2018-12-27T01:48:09.852Z,2.50
2018-12-27T01:50:39.789Z,2.50
2018-12-27T01:53:09.611Z,2.50
2018-12-27T01:55:39.590Z,2.40
2018-12-27T01:58:12.132Z,2.40
2018-12-27T02:00:42.893Z,2.40
2018-12-27T02:03:12.877Z,2.30
2018-12-27T02:05:42.748Z,2.30
2018-12-27T02:08:12.567Z,2.30
2018-12-27T02:10:42.366Z,2.30
2018-12-27T02:13:12.817Z,2.30
2018-12-27T02:15:42.736Z,2.30
2018-12-27T02:18:12.632Z,2.30
2018-12-27T02:20:42.432Z,2.30
2018-12-27T02:23:12.322Z,2.30
2018-12-27T02:25:42.119Z,2.30
2018-12-27T02:28:11.943Z,2.20
2018-12-27T02:30:42.808Z,2.20
2018-12-27T02:33:12.650Z,2.20
2018-12-27T02:35:42.457Z,2.10
2018-12-27T02:38:12.320Z,2.10
2018-12-27T02:40:42.117Z,2.10
2018-12-27T02:43:11.944Z,2.10
2018-12-27T02:45:41.787Z,2.00
2018-12-27T02:48:11.588Z,2.00
2018-12-27T02:50:41.532Z,2.00
2018-12-27T02:53:11.359Z,2.00
2018-12-27T02:55:41.142Z,1.90
2018-12-27T02:58:10.971Z,1.90
2018-12-27T03:00:41.871Z,1.90
2018-12-27T03:03:11.669Z,1.80
2018-12-27T03:05:42.941Z,1.80
2018-12-27T03:08:12.723Z,1.80
2018-12-27T03:10:42.586Z,1.80
2018-12-27T03:13:12.479Z,1.70
2018-12-27T03:15:42.451Z,1.70
2018-12-27T03:18:14.315Z,1.60
2018-12-27T03:20:46.119Z,1.60
2018-12-27T03:23:15.996Z,1.60
2018-12-27T03:25:45.880Z,1.50
2018-12-27T03:28:15.784Z,1.40
2018-12-27T03:30:45.656Z,1.40
2018-12-27T03:33:16.655Z,1.40
2018-12-27T03:35:46.615Z,1.30
2018-12-27T03:38:20.858Z,1.20
2018-12-27T03:40:50.631Z,1.20
2018-12-27T03:43:20.474Z,1.10
2018-12-27T03:45:51.814Z,1.10
2018-12-27T03:48:23.254Z,1.00
2018-12-27T03:50:58.926Z,1.00
2018-12-27T03:53:28.899Z,0.90
2018-12-27T03:55:58.709Z,0.90
2018-12-27T03:58:28.520Z,0.90
2018-12-27T04:00:58.418Z,0.90
2018-12-27T04:03:29.128Z,0.80
2018-12-27T04:05:59.894Z,0.80
2018-12-27T04:08:29.722Z,0.70
2018-12-27T04:11:09.316Z,0.70
2018-12-27T04:13:41.136Z,0.60
2018-12-27T04:16:11.773Z,0.60
2018-12-27T04:18:42.417Z,0.60
2018-12-27T04:21:12.360Z,0.60
2018-12-27T04:23:42.608Z,0.60
2018-12-27T04:26:13.521Z,0.60
2018-12-27T04:28:43.117Z,0.60
2018-12-27T04:31:12.973Z,0.60
2018-12-27T04:33:43.038Z,0.60
2018-12-27T04:36:12.979Z,0.60
2018-12-27T04:38:42.663Z,0.60
2018-12-27T04:41:12.252Z,0.70
2018-12-27T04:43:42.091Z,0.70
2018-12-27T04:46:11.953Z,0.60
2018-12-27T04:48:41.616Z,0.60
2018-12-27T04:51:11.324Z,0.60
2018-12-27T04:53:42.685Z,0.60
2018-12-27T04:56:12.330Z,0.60
2018-12-27T04:58:42.100Z,0.60
2018-12-27T05:01:12.096Z,0.60
2018-12-27T05:03:41.717Z,0.60
2018-12-27T05:06:11.432Z,0.60
2018-12-27T05:08:43.181Z,0.60
2018-12-27T05:11:12.898Z,0.60
2018-12-27T05:13:42.521Z,0.50
2018-12-27T05:16:12.105Z,0.60
2018-12-27T05:18:42.670Z,0.50
2018-12-27T05:21:15.243Z,0.60
2018-12-27T05:23:44.775Z,0.60
2018-12-27T05:26:14.384Z,0.60
2018-12-27T05:28:47.867Z,0.60
2018-12-27T05:31:17.654Z,0.60
2018-12-27T05:33:47.314Z,0.60
2018-12-27T05:36:17.024Z,0.60
2018-12-27T05:38:46.827Z,0.60
2018-12-27T05:41:16.515Z,0.60
2018-12-27T05:43:46.160Z,0.60
2018-12-27T05:46:15.791Z,0.60
2018-12-27T05:48:45.416Z,0.60
2018-12-27T05:51:15.094Z,0.60
2018-12-27T05:53:44.743Z,0.60
2018-12-27T05:56:14.375Z,0.60
2018-12-27T05:58:46.661Z,0.60
2018-12-27T06:01:17.928Z,0.50
2018-12-27T06:03:47.546Z,0.50
2018-12-27T06:06:17.150Z,0.50
2018-12-27T06:08:49.963Z,0.50
2018-12-27T06:11:19.602Z,0.50
2018-12-27T06:13:49.389Z,0.50
2018-12-27T06:16:20.220Z,0.50
2018-12-27T06:18:52.812Z,0.60
2018-12-27T06:21:22.462Z,0.60
2018-12-27T06:23:53.141Z,0.60
2018-12-27T06:26:22.864Z,0.60
2018-12-27T06:28:52.567Z,0.60
2018-12-27T06:31:22.200Z,0.60
2018-12-27T06:33:52.938Z,0.50
2018-12-27T06:36:23.560Z,0.50
2018-12-27T06:38:53.213Z,0.50
2018-12-27T06:41:22.872Z,0.50
2018-12-27T06:43:52.450Z,0.50
2018-12-27T06:46:22.169Z,0.50
2018-12-27T06:48:55.182Z,0.50
2018-12-27T06:51:26.481Z,0.50
2018-12-27T06:53:56.128Z,0.50
2018-12-27T06:56:25.811Z,0.50
2018-12-27T06:58:55.851Z,0.50
2018-12-27T07:01:25.574Z,0.50
2018-12-27T07:03:56.335Z,0.50
2018-12-27T07:06:25.912Z,0.50
2018-12-27T07:08:55.680Z,0.50
2018-12-27T07:11:25.324Z,0.50
2018-12-27T07:13:55.884Z,0.50
2018-12-27T07:16:25.647Z,0.50
2018-12-27T07:18:55.224Z,0.50
2018-12-27T07:21:25.725Z,0.50
2018-12-27T07:23:55.498Z,0.50
2018-12-27T07:26:25.349Z,0.50
2018-12-27T07:28:54.973Z,0.60
2018-12-27T07:31:24.676Z,0.50
2018-12-27T07:33:54.487Z,0.50
2018-12-27T07:36:25.204Z,0.50
2018-12-27T07:38:54.829Z,0.50
2018-12-27T07:41:24.481Z,0.50
2018-12-27T07:43:55.127Z,0.50
2018-12-27T07:46:24.779Z,0.50
2018-12-27T07:48:54.369Z,0.50
2018-12-27T07:51:24.060Z,0.40
2018-12-27T07:53:53.885Z,0.50
2018-12-27T07:56:23.796Z,0.50
2018-12-27T07:58:53.851Z,0.50
2018-12-27T08:01:23.566Z,0.50
2018-12-27T08:03:53.242Z,0.50
2018-12-27T08:06:25.040Z,0.50
2018-12-27T08:08:54.963Z,0.50
2018-12-27T08:11:25.629Z,0.50
2018-12-27T08:13:55.690Z,0.50
2018-12-27T08:16:25.432Z,0.50
2018-12-27T08:18:57.694Z,0.60
2018-12-27T08:21:27.420Z,0.60
2018-12-27T08:23:57.209Z,0.60
2018-12-27T08:26:28.031Z,0.70
2018-12-27T08:28:57.596Z,0.70
2018-12-27T08:31:28.657Z,0.80
2018-12-27T08:33:58.832Z,0.80
2018-12-27T08:36:30.601Z,0.90
2018-12-27T08:39:01.330Z,0.90
2018-12-27T08:41:32.761Z,0.90
2018-12-27T08:44:02.564Z,1.00
2018-12-27T08:46:32.311Z,1.00
2018-12-27T08:49:01.957Z,1.10
2018-12-27T08:51:31.554Z,1.20
2018-12-27T08:54:01.581Z,1.20
2018-12-27T08:56:31.256Z,1.20
2018-12-27T08:59:01.164Z,1.30
2018-12-27T09:01:32.493Z,1.40
2018-12-27T09:04:02.248Z,1.50
2018-12-27T09:06:32.951Z,1.50
2018-12-27T09:09:05.864Z,1.60
2018-12-27T09:11:38.234Z,1.70
2018-12-27T09:14:08.004Z,1.80
2018-12-27T09:16:37.688Z,1.80
2018-12-27T09:19:07.378Z,1.90
2018-12-27T09:21:38.302Z,2.00
2018-12-27T09:24:08.089Z,2.10
2018-12-27T09:26:37.737Z,2.30
2018-12-27T09:29:07.782Z,2.40
2018-12-27T09:31:39.194Z,2.50
2018-12-27T09:34:10.127Z,2.60
2018-12-27T09:36:42.288Z,2.70
2018-12-27T09:39:12.961Z,2.70
2018-12-27T09:41:42.716Z,2.90
2018-12-27T09:44:12.421Z,2.90
2018-12-27T09:46:42.104Z,3.00
2018-12-27T09:49:12.683Z,3.00
2018-12-27T09:51:42.545Z,3.10
2018-12-27T09:54:12.183Z,3.10
2018-12-27T09:56:43.854Z,3.20
2018-12-27T09:59:13.737Z,3.30
2018-12-27T10:01:43.426Z,3.40
2018-12-27T10:04:13.048Z,3.50
2018-12-27T10:06:42.850Z,3.50
2018-12-27T10:09:12.862Z,3.60
2018-12-27T10:11:44.801Z,3.60
2018-12-27T10:14:14.598Z,3.70
2018-12-27T10:16:45.940Z,3.80
2018-12-27T10:19:15.836Z,3.80
2018-12-27T10:21:45.738Z,4.00
2018-12-27T10:24:15.505Z,4.10
2018-12-27T10:26:45.581Z,4.20
2018-12-27T10:29:15.245Z,4.30
2018-12-27T10:31:50.921Z,4.40
2018-12-27T10:34:21.663Z,4.40
2018-12-27T10:36:51.645Z,4.50
2018-12-27T10:39:22.830Z,4.60
2018-12-27T10:41:53.485Z,4.70
2018-12-27T10:44:23.381Z,4.80
2018-12-27T10:46:53.122Z,4.80
2018-12-27T10:49:22.779Z,5.00
2018-12-27T10:51:52.593Z,5.10
2018-12-27T10:54:25.567Z,5.20
2018-12-27T10:56:55.337Z,5.20
2018-12-27T10:59:32.773Z,5.20
2018-12-27T11:02:02.445Z,5.40
2018-12-27T11:04:32.095Z,5.40
2018-12-27T11:07:01.843Z,5.40
2018-12-27T11:09:31.484Z,5.40
2018-12-27T11:12:05.767Z,5.40
2018-12-27T11:14:35.487Z,5.30
2018-12-27T11:17:05.390Z,5.40
2018-12-27T11:19:35.171Z,5.40
2018-12-27T11:22:05.955Z,5.40
2018-12-27T11:24:35.736Z,5.50
2018-12-27T11:27:05.581Z,5.50
2018-12-27T11:29:35.432Z,5.50
2018-12-27T11:32:05.167Z,5.50
2018-12-27T11:34:35.998Z,5.60
2018-12-27T11:37:06.182Z,5.60
2018-12-27T11:39:45.930Z,5.60
2018-12-27T11:42:15.653Z,5.60
2018-12-27T11:44:46.391Z,5.60
2018-12-27T11:47:16.276Z,5.60
2018-12-27T11:49:49.561Z,5.70
2018-12-27T11:52:23.032Z,5.70
2018-12-27T11:54:53.119Z,5.80
2018-12-27T11:57:23.160Z,5.90
2018-12-27T11:59:53.792Z,6.00
2018-12-27T12:02:30.893Z,6.20
2018-12-27T12:04:55.229Z,6.30
2018-12-27T12:07:26.298Z,6.50
2018-12-27T12:09:59.312Z,6.60
2018-12-27T12:12:36.283Z,6.60
2018-12-27T12:15:07.841Z,6.60
2018-12-27T12:17:37.703Z,6.70
2018-12-27T12:20:09.120Z,6.70
2018-12-27T12:22:39.008Z,6.60
2018-12-27T12:25:10.797Z,6.70
2018-12-27T12:27:41.779Z,6.70
2018-12-27T12:30:11.558Z,6.70
2018-12-27T12:32:42.379Z,6.70
2018-12-27T12:35:12.281Z,6.80
2018-12-27T12:37:42.472Z,6.80
2018-12-27T12:40:13.525Z,6.80
2018-12-27T12:42:43.482Z,6.90
2018-12-27T12:45:15.525Z,6.90
2018-12-27T12:47:47.744Z,7.00
2018-12-27T12:50:18.588Z,7.10
2018-12-27T12:52:49.617Z,7.00
2018-12-27T12:55:20.019Z,7.10
2018-12-27T12:57:51.687Z,7.10
2018-12-27T13:00:23.765Z,7.20
2018-12-27T13:02:54.652Z,7.20
2018-12-27T13:05:25.343Z,7.20
2018-12-27T13:07:55.169Z,7.10
2018-12-27T13:10:25.193Z,7.10
2018-12-27T13:12:55.090Z,7.10
2018-12-27T13:15:25.023Z,7.00
2018-12-27T13:17:56.612Z,7.00
2018-12-27T13:20:27.359Z,7.00
2018-12-27T13:22:58.251Z,6.90
2018-12-27T13:25:33.171Z,6.90
2018-12-27T13:28:04.639Z,6.90
2018-12-27T13:30:39.007Z,6.90
2018-12-27T13:33:08.838Z,6.90
2018-12-27T13:35:39.770Z,6.90
2018-12-27T13:38:09.649Z,6.90
2018-12-27T13:40:40.541Z,6.90
2018-12-27T13:43:10.691Z,6.80
2018-12-27T13:45:40.813Z,6.80
2018-12-27T13:48:12.222Z,6.80
2018-12-27T13:50:43.997Z,6.80
2018-12-27T13:53:13.897Z,6.70
2018-12-27T13:55:46.470Z,6.70
2018-12-27T13:58:17.499Z,6.80
2018-12-27T14:00:52.123Z,6.80
2018-12-27T14:03:21.972Z,6.80
2018-12-27T14:05:55.466Z,6.80
2018-12-27T14:08:26.332Z,6.90
2018-12-27T14:10:56.018Z,6.80
2018-12-27T14:13:26.998Z,6.80
2018-12-27T14:16:01.637Z,6.80
2018-12-27T14:18:31.418Z,6.80
2018-12-27T14:21:01.352Z,6.70
2018-12-27T14:23:32.046Z,6.60
2018-12-27T14:26:02.072Z,6.60
2018-12-27T14:28:33.001Z,6.60
2018-12-27T14:31:02.796Z,6.50
2018-12-27T14:33:32.686Z,6.40
2018-12-27T14:36:02.562Z,6.40
2018-12-27T14:38:33.844Z,6.30
2018-12-27T14:41:03.723Z,6.30
2018-12-27T14:43:33.682Z,6.20
2018-12-27T14:46:06.530Z,6.20
2018-12-27T14:48:36.282Z,6.20
2018-12-27T14:51:05.951Z,6.10
2018-12-27T14:53:35.580Z,6.10
2018-12-27T14:56:05.588Z,6.00
2018-12-27T14:58:35.372Z,6.00
2018-12-27T15:01:05.255Z,5.90
2018-12-27T15:03:37.038Z,5.90
2018-12-27T15:06:06.879Z,5.80
2018-12-27T15:08:36.767Z,5.80
2018-12-27T15:11:06.600Z,5.70
2018-12-27T15:13:37.817Z,5.70
2018-12-27T15:16:07.761Z,5.60
2018-12-27T15:18:38.098Z,5.60
2018-12-27T15:21:07.920Z,5.50
2018-12-27T15:23:40.417Z,5.50
2018-12-27T15:26:10.190Z,5.50
2018-12-27T15:28:39.935Z,5.40
2018-12-27T15:31:10.174Z,5.30
2018-12-27T15:33:43.658Z,5.30
2018-12-27T15:36:18.113Z,5.20
2018-12-27T15:39:01.161Z,5.20
2018-12-27T15:41:32.900Z,5.10
2018-12-27T15:44:09.325Z,5.10
2018-12-27T15:46:39.211Z,5.00
2018-12-27T15:49:13.594Z,4.90
2018-12-27T15:51:43.835Z,4.90
2018-12-27T15:54:18.317Z,4.90
2018-12-27T15:56:55.306Z,4.80
2018-12-27T15:59:32.017Z,4.80
2018-12-27T16:02:01.435Z,4.80
2018-12-27T16:04:40.635Z,4.70
2018-12-27T16:07:10.828Z,4.70
2018-12-27T16:09:43.824Z,4.70
2018-12-27T16:12:23.376Z,4.60
2018-12-27T16:14:54.355Z,4.60
2018-12-27T16:17:30.576Z,4.60
2018-12-27T16:20:00.536Z,4.60
2018-12-27T16:22:32.822Z,4.50
2018-12-27T16:25:04.455Z,4.50
2018-12-27T16:27:39.669Z,4.50
2018-12-27T16:30:09.740Z,4.40
2018-12-27T16:32:39.459Z,4.30
2018-12-27T16:35:10.270Z,4.30
2018-12-27T16:37:42.273Z,4.30
2018-12-27T16:40:13.396Z,4.30
2018-12-27T16:42:55.169Z,4.20
2018-12-27T16:45:31.805Z,4.20
2018-12-27T16:48:11.989Z,4.20
2018-12-27T16:50:45.904Z,4.10
2018-12-27T16:53:17.880Z,4.10
2018-12-27T16:55:49.116Z,4.10
2018-12-27T16:58:20.809Z,4.00
2018-12-27T17:00:54.579Z,4.00
2018-12-27T17:03:24.977Z,4.00
2018-12-27T17:05:58.063Z,3.90
2018-12-27T17:08:53.932Z,3.90
2018-12-27T17:11:04.522Z,3.90
2018-12-27T17:16:31.879Z,3.80
2018-12-27T17:19:01.739Z,3.80
2018-12-27T17:21:31.659Z,3.70
2018-12-27T17:24:01.511Z,3.70
2018-12-27T17:26:33.282Z,3.70
2018-12-27T17:29:03.303Z,3.70
2018-12-27T17:31:37.441Z,3.60
2018-12-27T17:34:09.732Z,3.60
2018-12-27T17:36:39.569Z,3.60
2018-12-27T17:39:09.545Z,3.60
2018-12-27T17:41:39.684Z,3.50
2018-12-27T17:44:10.917Z,3.50
2018-12-27T17:46:43.321Z,3.40
2018-12-27T17:49:14.057Z,3.40
2018-12-27T17:51:48.414Z,3.40
2018-12-27T17:54:20.143Z,3.30
2018-12-27T17:56:51.796Z,3.20
2018-12-27T17:59:22.717Z,3.20
2018-12-27T18:01:52.695Z,3.20
2018-12-27T18:04:25.570Z,3.20
2018-12-27T18:06:55.417Z,3.10
2018-12-27T18:09:25.219Z,3.10
2018-12-27T18:11:55.914Z,3.00
2018-12-27T18:14:27.772Z,3.00
2018-12-27T18:16:57.658Z,3.00
2018-12-27T18:19:27.562Z,2.90
2018-12-27T18:21:57.373Z,2.90
2018-12-27T18:24:27.402Z,2.90
2018-12-27T18:26:58.958Z,2.80
2018-12-27T18:29:28.859Z,2.80
2018-12-27T18:31:58.517Z,2.70
2018-12-27T18:34:30.445Z,2.60
2018-12-27T18:37:00.513Z,2.60
2018-12-27T18:39:32.765Z,2.60
2018-12-27T18:42:04.803Z,2.50
2018-12-27T18:44:34.883Z,2.40
2018-12-27T18:47:12.397Z,2.40
2018-12-27T18:49:42.407Z,2.30
2018-12-27T18:52:12.290Z,2.30
2018-12-27T18:54:42.231Z,2.20
2018-12-27T18:57:16.296Z,2.20
2018-12-27T18:59:46.174Z,2.10
2018-12-27T19:02:19.447Z,2.10
2018-12-27T19:04:54.474Z,2.10
2018-12-27T19:07:24.318Z,2.10
2018-12-27T19:09:59.090Z,2.00
2018-12-27T19:13:06.365Z,2.00
2018-12-27T19:15:42.545Z,2.00
2018-12-27T19:18:19.908Z,2.00
2018-12-27T19:20:54.468Z,1.90
2018-12-27T19:23:24.515Z,1.90
2018-12-27T19:25:54.318Z,1.90
2018-12-27T19:28:26.122Z,1.90
2018-12-27T19:30:55.844Z,1.90
2018-12-27T19:33:25.840Z,1.90
2018-12-27T19:35:55.592Z,1.90
2018-12-27T19:38:25.357Z,1.90
2018-12-27T19:40:59.371Z,1.80
2018-12-27T19:43:34.131Z,1.80
2018-12-27T19:46:03.971Z,1.80
2018-12-27T19:48:33.618Z,1.90
2018-12-27T19:51:03.473Z,1.90
2018-12-27T19:53:38.006Z,1.90
2018-12-27T19:56:10.873Z,2.00
2018-12-27T19:58:40.883Z,2.00
2018-12-27T20:01:10.646Z,2.00
2018-12-27T20:03:40.509Z,2.10
2018-12-27T20:06:11.797Z,2.10
2018-12-27T20:08:47.251Z,2.10
2018-12-27T20:11:18.484Z,2.10
2018-12-27T20:13:49.518Z,2.20
2018-12-27T20:16:25.007Z,2.10
2018-12-27T20:19:00.318Z,2.20
2018-12-27T20:21:32.101Z,2.20
2018-12-27T20:24:02.960Z,2.20
2018-12-27T20:26:34.277Z,2.20
2018-12-27T20:29:06.075Z,2.20
2018-12-27T20:31:35.705Z,2.10
2018-12-27T20:34:09.265Z,2.20
2018-12-27T20:36:41.472Z,2.20
2018-12-27T20:39:11.573Z,2.20
2018-12-27T20:41:41.524Z,2.30
2018-12-27T20:44:12.956Z,2.30
2018-12-27T20:46:44.406Z,2.30
2018-12-27T20:49:15.966Z,2.40
2018-12-27T20:51:45.679Z,2.40
2018-12-27T20:54:17.135Z,2.40
2018-12-27T20:56:47.752Z,2.40
2018-12-27T20:59:18.386Z,2.40
2018-12-27T21:01:49.114Z,2.50
2018-12-27T21:04:21.554Z,2.50
2018-12-27T21:06:52.512Z,2.50
2018-12-27T21:09:22.516Z,2.40
2018-12-27T21:11:52.321Z,2.40
2018-12-27T21:14:22.127Z,2.50
2018-12-27T21:16:56.659Z,2.50
2018-12-27T21:19:26.399Z,2.50
2018-12-27T21:21:56.214Z,2.40
2018-12-27T21:24:27.860Z,2.40
2018-12-27T21:26:57.800Z,2.40
2018-12-27T21:29:41.489Z,2.40
2018-12-27T21:32:13.394Z,2.40
2018-12-27T21:34:43.446Z,2.40
2018-12-27T21:37:16.288Z,2.30
2018-12-27T21:39:46.172Z,2.30
2018-12-27T21:42:16.153Z,2.30
2018-12-27T21:44:46.011Z,2.30
2018-12-27T21:47:15.684Z,2.20
2018-12-27T21:49:47.347Z,2.10
2018-12-27T21:52:18.145Z,2.10
2018-12-27T21:54:47.966Z,2.10
2018-12-27T21:57:17.706Z,2.00
2018-12-27T21:59:47.595Z,1.90
2018-12-27T22:02:17.393Z,1.90
2018-12-27T22:04:51.771Z,1.90
2018-12-27T22:07:23.546Z,1.90
2018-12-27T22:09:53.348Z,1.90
2018-12-27T22:12:23.378Z,1.80
2018-12-27T22:14:54.256Z,1.80
2018-12-27T22:17:23.952Z,1.80
2018-12-27T22:20:02.773Z,1.80
2018-12-27T22:22:41.006Z,1.70
2018-12-27T22:25:10.906Z,1.70
2018-12-27T22:27:40.689Z,1.60
2018-12-27T22:30:10.434Z,1.60
2018-12-27T22:32:43.670Z,1.50
2018-12-27T22:35:13.390Z,1.50
2018-12-27T22:37:43.008Z,1.40
2018-12-27T22:40:12.986Z,1.40
2018-12-27T22:42:43.863Z,1.40
2018-12-27T22:45:19.322Z,1.40
2018-12-27T22:47:52.076Z,1.40
2018-12-27T22:50:21.791Z,1.30
2018-12-27T22:52:53.369Z,1.30
2018-12-27T22:55:24.604Z,1.20
2018-12-27T22:57:54.769Z,1.20
2018-12-27T23:00:26.373Z,1.20
2018-12-27T23:02:56.289Z,1.10
2018-12-27T23:05:28.871Z,1.10
2018-12-27T23:07:59.554Z,1.10
2018-12-27T23:10:29.456Z,1.10
2018-12-27T23:13:00.569Z,1.00
2018-12-27T23:15:30.224Z,1.00
2018-12-27T23:18:05.997Z,0.90
2018-12-27T23:20:35.723Z,0.90
2018-12-27T23:23:06.438Z,0.90
2018-12-27T23:25:37.677Z,0.90
2018-12-27T23:28:07.590Z,0.80
2018-12-27T23:30:37.444Z,0.80
2018-12-27T23:33:08.684Z,0.80
2018-12-27T23:35:39.806Z,0.80
2018-12-27T23:38:10.570Z,0.70
2018-12-27T23:40:40.245Z,0.70
2018-12-27T23:43:10.860Z,0.70
2018-12-27T23:45:40.969Z,0.70
2018-12-27T23:48:10.695Z,0.60
2018-12-27T23:50:40.527Z,0.60
2018-12-27T23:53:11.141Z,0.60
2018-12-27T23:55:41.092Z,0.50
2018-12-27T23:58:10.843Z,0.50
